Time,TemperatureF,DewpointF,PressureIn,WindDirection,WindDirectionDegrees,WindSpeedMPH,WindSpeedGustMPH,Humidity,HourlyPrecipIn,Conditions,Clouds,dailyrainin,SoftwareType,DateUTC
2013-09-24 00:00:00,74.5,74.5,29.97,South,183,1.7,5.2,100,0.00,,---,0.00,VWS V14.01,2013-09-24 04:00:00,
2013-09-24 00:01:00,74.1,74.1,29.97,SSE,148,0.6,0.7,100,0.00,,---,0.00,VWS V14.01,2013-09-24 04:01:00,
2013-09-24 00:02:00,75.9,75.9,29.85,SE,142,0.8,7.6,100,0.00,,---,0.00,VWS V14.01,2013-09-24 04:02:00,
2013-09-24 00:03:00,74.8,74.8,29.85,SW,232,4.6,7.6,100,0.00,,---,0.00,VWS V14.01,2013-09-24 04:03:00,
2013-09-24 00:04:00,75.8,75.8,29.85,SSW,204,7.5,9.4,100,0.00,,---,0.00,VWS V14.01,2013-09-24 04:04:00,
2013-09-24 00:05:00,75.3,75.3,29.85,SSW,193,1.4,9.4,100,0.00,,---,0.00,VWS V14.01,2013-09-24 04:05:00,
2013-09-24 00:06:00,73.5,73.5,29.97,SSE,167,1.9,3.9,100,0.00,,---,0.00,VWS V14.01,2013-09-24 04:06:00,
2013-09-24 00:11:00,74.4,74.4,29.97,SSE,150,0.0,2.5,100,0.00,,---,0.00,VWS V14.01,2013-09-24 04:11:00,
2013-09-24 00:16:00,73.8,73.8,29.97,SSE,153,0.0,0.0,100,0.00,,---,0.00,VWS V14.01,2013-09-24 04:16:00,
2013-09-24 00:21:00,73.6,73.6,29.97,South,181,1.6,3.9,100,0.00,,---,0.00,VWS V14.01,2013-09-24 04:21:00,
2013-09-24 00:26:00,74.4,74.4,29.97,SSE,155,1.5,3.2,100,0.00,,---,0.00,VWS V14.01,2013-09-24 04:26:00,
2013-09-24 00:31:00,74.6,74.6,29.97,SE,141,0.0,0.0,100,0.00,,---,0.00,VWS V14.01,2013-09-24 04:31:00,
2013-09-24 00:36:00,74.5,74.5,29.97,SSE,156,0.0,0.0,100,0.00,,---,0.00,VWS V14.01,2013-09-24 04:36:00,
2013-09-24 00:41:00,74.5,74.5,29.97,South,179,1.7,3.9,100,0.00,,---,0.00,VWS V14.01,2013-09-24 04:41:00,
2013-09-24 00:46:00,73.8,73.8,29.97,South,176,1.7,3.9,100,0.00,,---,0.00,VWS V14.01,2013-09-24 04:46:00,
2013-09-24 00:51:00,73.5,73.5,29.97,SSE,156,0.7,4.1,100,0.00,,---,0.00,VWS V14.01,2013-09-24 04:51:00,
2013-09-24 00:56:00,73.7,73.7,29.97,SSW,195,4.8,4.8,100,0.00,,---,0.00,VWS V14.01,2013-09-24 04:56:00,
2013-09-24 01:01:00,74.2,74.2,29.96,SE,128,0.0,3.0,100,0.00,,---,0.00,VWS V14.01,2013-09-24 05:01:00,
2013-09-24 01:06:00,74.2,74.2,29.96,South,170,0.0,1.6,100,0.00,,---,0.00,VWS V14.01,2013-09-24 05:06:00,
2013-09-24 01:11:00,74.8,74.8,29.96,SSE,165,4.2,4.2,100,0.00,,---,0.00,VWS V14.01,2013-09-24 05:11:00,
2013-09-24 01:16:00,74.1,74.1,29.95,South,176,3.7,3.7,100,0.00,,---,0.00,VWS V14.01,2013-09-24 05:16:00,
2013-09-24 01:21:00,74.7,74.7,29.95,SSE,165,1.2,1.2,100,0.00,,---,0.00,VWS V14.01,2013-09-24 05:21:00,
2013-09-24 01:26:00,74.8,74.8,29.95,SSE,163,2.9,5.0,100,0.00,,---,0.00,VWS V14.01,2013-09-24 05:26:00,
2013-09-24 01:31:00,74.9,74.9,29.95,SE,134,1.4,4.1,100,0.00,,---,0.00,VWS V14.01,2013-09-24 05:31:00,
2013-09-24 01:36:00,73.7,73.7,29.95,South,186,6.3,6.3,100,0.00,,---,0.00,VWS V14.01,2013-09-24 05:36:00,
2013-09-24 01:41:00,74.8,74.8,29.95,SSW,205,4.8,6.8,100,0.00,,---,0.00,VWS V14.01,2013-09-24 05:41:00,
2013-09-24 01:46:00,74.7,74.7,29.95,SE,132,2.4,5.7,100,0.00,,---,0.00,VWS V14.01,2013-09-24 05:46:00,
2013-09-24 01:51:00,74.7,74.7,29.95,SSW,193,5.0,6.6,100,0.00,,---,0.00,VWS V14.01,2013-09-24 05:51:00,
2013-09-24 01:56:00,74.1,74.1,29.95,South,191,2.0,2.0,100,0.00,,---,0.00,VWS V14.01,2013-09-24 05:56:00,
2013-09-24 02:01:00,74.8,74.8,29.95,SE,132,1.2,2.9,100,0.00,,---,0.00,VWS V14.01,2013-09-24 06:01:00,
2013-09-24 02:06:00,73.5,73.5,29.95,SSW,205,0.0,1.7,100,0.00,,---,0.00,VWS V14.01,2013-09-24 06:06:00,
2013-09-24 02:11:00,75.0,75.0,29.94,SE,136,0.0,0.0,100,0.00,,---,0.00,VWS V14.01,2013-09-24 06:11:00,
2013-09-24 02:16:00,74.8,74.8,29.93,SSE,150,3.6,7.0,100,0.00,,---,0.00,VWS V14.01,2013-09-24 06:16:00,
2013-09-24 02:21:00,74.8,74.8,29.93,SSE,160,0.0,0.0,100,0.00,,---,0.00,VWS V14.01,2013-09-24 06:21:00,
2013-09-24 02:26:00,74.7,74.7,29.93,SSE,152,0.0,4.6,100,0.00,,---,0.00,VWS V14.01,2013-09-24 06:26:00,
2013-09-24 02:31:00,74.4,74.4,29.93,SE,142,0.0,0.0,100,0.00,,---,0.00,VWS V14.01,2013-09-24 06:31:00,
2013-09-24 02:36:00,73.5,73.5,29.93,SSE,160,0.0,0.7,100,0.00,,---,0.00,VWS V14.01,2013-09-24 06:36:00,
2013-09-24 02:41:00,75.3,75.3,29.93,ESE,121,0.0,6.5,100,0.00,,---,0.00,VWS V14.01,2013-09-24 06:41:00,
2013-09-24 02:46:00,75.0,75.0,29.93,ESE,104,4.5,5.7,100,0.00,,---,0.00,VWS V14.01,2013-09-24 06:46:00,
2013-09-24 02:51:00,75.5,75.5,29.93,SSE,155,2.6,4.5,100,0.00,,---,0.00,VWS V14.01,2013-09-24 06:51:00,
2013-09-24 02:56:00,75.4,75.4,29.93,SSE,153,1.9,3.9,100,0.00,,---,0.00,VWS V14.01,2013-09-24 06:56:00,
2013-09-24 03:01:00,74.6,74.6,29.92,South,183,0.0,3.7,100,0.00,,---,0.00,VWS V14.01,2013-09-24 07:01:00,
2013-09-24 03:06:00,75.8,75.8,29.93,SSW,200,0.9,1.5,100,0.00,,---,0.00,VWS V14.01,2013-09-24 07:06:00,
2013-09-24 03:11:00,74.9,74.9,29.93,South,170,1.0,3.0,100,0.00,,---,0.00,VWS V14.01,2013-09-24 07:11:00,
2013-09-24 03:16:00,75.9,75.9,29.93,South,187,0.0,1.2,100,0.00,,---,0.00,VWS V14.01,2013-09-24 07:16:00,
2013-09-24 03:21:00,75.1,75.1,29.92,SSE,156,0.0,0.0,100,0.00,,---,0.00,VWS V14.01,2013-09-24 07:21:00,
2013-09-24 03:26:00,75.7,75.7,29.92,SSE,162,0.0,0.0,100,0.00,,---,0.00,VWS V14.01,2013-09-24 07:26:00,
2013-09-24 03:31:00,75.7,75.7,29.92,SE,143,0.0,0.0,100,0.00,,---,0.00,VWS V14.01,2013-09-24 07:31:00,
2013-09-24 03:36:00,75.3,75.3,29.92,SE,143,0.0,0.0,100,0.00,,---,0.00,VWS V14.01,2013-09-24 07:36:00,
2013-09-24 03:41:00,74.8,74.8,29.92,South,190,0.0,0.0,100,0.00,,---,0.00,VWS V14.01,2013-09-24 07:41:00,
2013-09-24 03:46:00,75.6,75.6,29.92,South,180,0.0,0.0,100,0.00,,---,0.00,VWS V14.01,2013-09-24 07:46:00,
2013-09-24 03:51:00,74.9,74.9,29.92,South,180,0.0,0.0,100,0.00,,---,0.00,VWS V14.01,2013-09-24 07:51:00,
2013-09-24 03:56:00,75.9,75.9,29.92,South,174,0.0,0.0,100,0.00,,---,0.00,VWS V14.01,2013-09-24 07:56:00,
2013-09-24 04:01:00,75.4,75.4,29.92,South,174,0.0,0.0,100,0.00,,---,0.00,VWS V14.01,2013-09-24 08:01:00,
2013-09-24 04:06:00,75.7,75.7,29.92,SE,141,0.0,0.0,100,0.00,,---,0.00,VWS V14.01,2013-09-24 08:06:00,
2013-09-24 04:11:00,75.6,75.6,29.92,South,186,0.0,0.0,100,0.00,,---,0.00,VWS V14.01,2013-09-24 08:11:00,
2013-09-24 04:16:00,75.1,75.1,29.92,SW,214,0.0,0.0,100,0.00,,---,0.00,VWS V14.01,2013-09-24 08:16:00,
2013-09-24 04:21:00,74.8,74.8,29.92,SSW,193,0.0,0.0,100,0.00,,---,0.00,VWS V14.01,2013-09-24 08:21:00,
2013-09-24 04:26:00,75.2,75.2,29.92,SSW,193,0.0,0.0,100,0.00,,---,0.00,VWS V14.01,2013-09-24 08:26:00,
2013-09-24 04:31:00,75.7,75.7,29.92,SSW,193,0.0,0.0,100,0.00,,---,0.00,VWS V14.01,2013-09-24 08:31:00,
2013-09-24 04:36:00,75.8,75.8,29.92,South,173,1.1,1.1,100,0.00,,---,0.00,VWS V14.01,2013-09-24 08:36:00,
2013-09-24 04:41:00,75.7,75.7,29.92,South,188,0.0,0.0,100,0.00,,---,0.00,VWS V14.01,2013-09-24 08:41:00,
2013-09-24 04:46:00,75.7,75.7,29.92,South,170,0.0,0.0,100,0.00,,---,0.00,VWS V14.01,2013-09-24 08:46:00,
2013-09-24 04:51:00,75.1,75.1,29.92,SW,218,0.0,0.0,100,0.00,,---,0.00,VWS V14.01,2013-09-24 08:51:00,
2013-09-24 04:56:00,75.0,75.0,29.92,SW,218,0.0,0.0,100,0.00,,---,0.00,VWS V14.01,2013-09-24 08:56:00,
2013-09-24 05:01:00,76.0,76.0,29.92,South,174,0.0,0.0,100,0.00,,---,0.00,VWS V14.01,2013-09-24 09:01:00,
2013-09-24 05:06:00,75.7,75.7,29.92,SE,142,0.0,0.8,100,0.00,,---,0.00,VWS V14.01,2013-09-24 09:06:00,
2013-09-24 05:11:00,75.6,75.6,29.92,South,179,0.0,0.0,100,0.00,,---,0.00,VWS V14.01,2013-09-24 09:11:00,
2013-09-24 05:16:00,76.1,76.1,29.92,South,179,0.0,0.0,100,0.00,,---,0.00,VWS V14.01,2013-09-24 09:16:00,
2013-09-24 05:21:00,75.7,75.7,29.92,South,179,0.0,0.0,100,0.00,,---,0.00,VWS V14.01,2013-09-24 09:21:00,
2013-09-24 05:26:00,75.3,75.3,29.92,South,179,0.0,0.0,100,0.00,,---,0.00,VWS V14.01,2013-09-24 09:26:00,
2013-09-24 05:31:00,75.2,75.2,29.92,South,179,0.0,0.0,100,0.00,,---,0.00,VWS V14.01,2013-09-24 09:31:00,
2013-09-24 05:36:00,75.1,75.1,29.92,South,179,0.0,0.0,100,0.00,,---,0.00,VWS V14.01,2013-09-24 09:36:00,
2013-09-24 05:41:00,75.0,75.0,29.92,South,179,0.0,0.0,100,0.00,,---,0.00,VWS V14.01,2013-09-24 09:41:00,
2013-09-24 05:46:00,75.4,75.4,29.92,South,179,0.0,0.0,100,0.00,,---,0.00,VWS V14.01,2013-09-24 09:46:00,
2013-09-24 05:51:00,75.6,75.6,29.92,SE,132,0.0,0.0,100,0.00,,---,0.00,VWS V14.01,2013-09-24 09:51:00,
2013-09-24 05:56:00,75.0,75.0,29.92,SE,135,0.0,0.0,100,0.00,,---,0.00,VWS V14.01,2013-09-24 09:56:00,
2013-09-24 06:01:00,75.1,75.1,29.92,SSW,195,0.0,0.0,100,0.00,,---,0.00,VWS V14.01,2013-09-24 10:01:00,
2013-09-24 06:06:00,75.2,75.2,29.92,SSW,195,0.0,0.0,100,0.00,,---,0.00,VWS V14.01,2013-09-24 10:06:00,
2013-09-24 06:11:00,75.6,75.6,29.92,SSW,195,0.0,0.0,100,0.00,,---,0.00,VWS V14.01,2013-09-24 10:11:00,
2013-09-24 06:16:00,75.8,75.8,29.92,SSW,195,0.0,0.0,100,0.00,,---,0.00,VWS V14.01,2013-09-24 10:16:00,
2013-09-24 06:21:00,74.6,74.6,29.92,South,170,0.0,0.0,100,0.00,,---,0.00,VWS V14.01,2013-09-24 10:21:00,
2013-09-24 06:25:00,75.8,75.8,29.92,South,170,0.0,0.0,100,0.00,,---,0.00,VWS V14.01,2013-09-24 10:25:00,
2013-09-24 06:31:00,75.1,75.1,29.92,SSE,162,1.4,1.4,100,0.00,,---,0.00,VWS V14.01,2013-09-24 10:31:00,
2013-09-24 06:36:00,76.0,76.0,29.92,South,190,0.0,0.0,100,0.00,,---,0.00,VWS V14.01,2013-09-24 10:36:00,
2013-09-24 06:41:00,75.1,75.1,29.92,South,190,0.0,0.0,100,0.00,,---,0.00,VWS V14.01,2013-09-24 10:41:00,
2013-09-24 06:46:00,75.4,75.4,29.93,SSE,163,1.2,1.9,100,0.00,,---,0.00,VWS V14.01,2013-09-24 10:46:00,
2013-09-24 06:51:00,75.6,75.6,29.92,SSE,150,0.0,0.0,100,0.00,,---,0.00,VWS V14.01,2013-09-24 10:51:00,
2013-09-24 06:56:00,75.0,75.0,29.93,SSE,150,0.0,0.0,100,0.00,,---,0.00,VWS V14.01,2013-09-24 10:56:00,
2013-09-24 07:00:00,74.9,74.9,29.93,South,174,0.0,0.0,100,0.00,,---,0.00,VWS V14.01,2013-09-24 11:00:00,
2013-09-24 07:05:00,74.9,74.9,29.94,South,181,3.7,4.0,100,0.00,,---,0.00,VWS V14.01,2013-09-24 11:05:00,
2013-09-24 07:10:00,74.7,74.7,29.94,SSE,158,1.2,2.9,100,0.00,,---,0.00,VWS V14.01,2013-09-24 11:10:00,
2013-09-24 07:15:00,75.3,75.3,29.94,SE,138,0.0,0.0,100,0.00,,---,0.00,VWS V14.01,2013-09-24 11:15:00,
2013-09-24 07:20:00,74.6,74.6,29.94,South,187,2.5,2.5,100,0.00,,---,0.00,VWS V14.01,2013-09-24 11:20:00,
2013-09-24 07:25:00,74.4,74.4,29.94,South,186,3.1,3.1,100,0.00,,---,0.00,VWS V14.01,2013-09-24 11:25:00,
2013-09-24 07:30:00,74.3,74.3,29.94,SSE,152,0.9,1.5,100,0.00,,---,0.00,VWS V14.01,2013-09-24 11:30:00,
2013-09-24 07:35:00,75.2,75.2,29.94,SSE,166,1.2,3.7,100,0.00,,---,0.00,VWS V14.01,2013-09-24 11:35:00,
2013-09-24 07:40:00,75.3,75.3,29.94,South,187,1.9,2.3,100,0.00,,---,0.00,VWS V14.01,2013-09-24 11:40:00,
2013-09-24 07:45:00,75.4,75.4,29.94,South,177,0.0,0.0,100,0.00,,---,0.00,VWS V14.01,2013-09-24 11:45:00,
2013-09-24 07:50:00,75.7,75.7,29.94,South,184,0.0,0.0,100,0.00,,---,0.00,VWS V14.01,2013-09-24 11:50:00,
2013-09-24 07:55:00,75.8,75.8,29.94,SSE,150,0.0,3.5,100,0.00,,---,0.00,VWS V14.01,2013-09-24 11:55:00,
2013-09-24 08:00:00,74.6,74.6,29.95,SSW,201,2.1,2.4,100,0.00,,---,0.00,VWS V14.01,2013-09-24 12:00:00,
2013-09-24 08:05:00,75.8,75.8,29.94,South,188,0.0,0.0,100,0.00,,---,0.00,VWS V14.01,2013-09-24 12:05:00,
2013-09-24 08:10:00,74.4,74.4,29.95,South,188,0.0,0.0,100,0.00,,---,0.00,VWS V14.01,2013-09-24 12:10:00,
2013-09-24 08:16:00,75.4,75.4,29.94,South,188,0.0,0.0,100,0.00,,---,0.00,VWS V14.01,2013-09-24 12:16:00,
2013-09-24 08:21:00,74.7,74.7,29.94,SSW,198,0.0,0.3,100,0.00,,---,0.00,VWS V14.01,2013-09-24 12:21:00,
2013-09-24 08:26:00,74.8,74.8,29.94,South,190,2.1,2.8,100,0.00,,---,0.00,VWS V14.01,2013-09-24 12:26:00,
2013-09-24 08:31:00,75.4,75.4,29.94,South,170,0.0,0.0,100,0.00,,---,0.00,VWS V14.01,2013-09-24 12:31:00,
2013-09-24 08:36:00,75.8,75.8,29.95,South,170,0.0,0.0,100,0.00,,---,0.00,VWS V14.01,2013-09-24 12:36:00,
2013-09-24 08:41:00,75.0,75.0,29.95,South,180,0.0,0.0,100,0.00,,---,0.00,VWS V14.01,2013-09-24 12:41:00,
2013-09-24 08:46:00,76.0,76.0,29.94,SSW,201,2.5,3.5,100,0.00,,---,0.00,VWS V14.01,2013-09-24 12:46:00,
2013-09-24 08:51:00,74.7,74.7,29.94,SSE,166,0.5,0.8,100,0.00,,---,0.00,VWS V14.01,2013-09-24 12:51:00,
2013-09-24 08:55:00,75.8,75.8,29.94,South,177,4.1,4.2,100,0.00,,---,0.00,VWS V14.01,2013-09-24 12:55:00,
2013-09-24 09:00:00,74.7,74.7,29.94,South,179,0.0,0.0,100,0.01,,---,0.01,VWS V14.01,2013-09-24 13:00:00,
2013-09-24 09:05:00,74.6,74.6,29.95,SSW,207,0.0,0.0,100,0.01,,---,0.01,VWS V14.01,2013-09-24 13:05:00,
2013-09-24 09:10:00,75.8,75.8,29.95,SSE,153,0.0,0.0,100,0.01,,---,0.01,VWS V14.01,2013-09-24 13:10:00,
2013-09-24 09:15:00,75.7,75.7,29.95,South,187,1.4,1.4,100,0.01,,---,0.01,VWS V14.01,2013-09-24 13:15:00,
2013-09-24 09:20:00,76.1,76.1,29.94,SSE,158,7.0,7.3,100,0.02,,---,0.02,VWS V14.01,2013-09-24 13:20:00,
2013-09-24 09:25:00,75.1,75.1,29.94,South,191,4.3,4.7,100,0.02,,---,0.02,VWS V14.01,2013-09-24 13:25:00,
2013-09-24 09:30:00,75.0,75.0,29.94,South,172,5.8,5.8,100,0.02,,---,0.02,VWS V14.01,2013-09-24 13:30:00,
2013-09-24 09:35:00,76.0,76.0,29.93,South,172,4.0,6.5,100,0.02,,---,0.02,VWS V14.01,2013-09-24 13:35:00,
2013-09-24 09:40:00,75.7,75.7,29.93,SSW,204,2.4,2.6,100,0.02,,---,0.02,VWS V14.01,2013-09-24 13:40:00,
2013-09-24 09:45:00,74.9,74.9,29.93,South,173,3.7,4.0,100,0.02,,---,0.02,VWS V14.01,2013-09-24 13:45:00,
2013-09-24 09:50:00,75.3,75.3,29.93,South,188,5.3,5.5,100,0.02,,---,0.02,VWS V14.01,2013-09-24 13:50:00,
2013-09-24 09:55:00,76.1,76.1,29.93,SSW,193,2.9,3.3,100,0.02,,---,0.02,VWS V14.01,2013-09-24 13:55:00,
2013-09-24 10:00:00,76.3,76.3,29.93,SE,136,3.7,5.2,100,0.01,,---,0.02,VWS V14.01,2013-09-24 14:00:00,
2013-09-24 10:05:00,75.7,75.7,29.93,SSE,149,4.0,7.7,100,0.01,,---,0.02,VWS V14.01,2013-09-24 14:05:00,
2013-09-24 10:10:00,76.1,76.1,29.93,South,181,1.2,7.1,100,0.01,,---,0.02,VWS V14.01,2013-09-24 14:10:00,
2013-09-24 10:15:00,75.8,75.8,29.93,South,183,3.2,8.5,100,0.01,,---,0.02,VWS V14.01,2013-09-24 14:15:00,
2013-09-24 10:20:00,75.6,75.6,29.93,SSW,210,4.8,8.7,100,0.01,,---,0.02,VWS V14.01,2013-09-24 14:20:00,
2013-09-24 10:25:00,75.4,75.4,29.93,SW,217,4.0,4.0,100,0.00,,---,0.02,VWS V14.01,2013-09-24 14:25:00,
2013-09-24 10:30:00,76.7,76.7,29.93,SSW,194,6.0,6.0,100,0.00,,---,0.02,VWS V14.01,2013-09-24 14:30:00,
2013-09-24 10:35:00,76.8,76.8,29.93,SSE,166,5.6,5.6,100,0.00,,---,0.02,VWS V14.01,2013-09-24 14:35:00,
2013-09-24 10:40:00,76.8,76.8,29.94,SE,146,5.8,6.8,100,0.00,,---,0.02,VWS V14.01,2013-09-24 14:40:00,
2013-09-24 10:45:00,76.7,76.7,29.94,SSW,197,5.8,8.3,100,0.00,,---,0.02,VWS V14.01,2013-09-24 14:45:00,
2013-09-24 10:50:00,77.0,77.0,29.94,SSE,156,2.0,3.9,100,0.00,,---,0.02,VWS V14.01,2013-09-24 14:50:00,
2013-09-24 10:55:00,77.2,77.2,29.94,SSW,207,4.2,7.7,100,0.00,,---,0.02,VWS V14.01,2013-09-24 14:55:00,
2013-09-24 11:00:00,77.1,77.1,29.94,South,169,8.0,8.0,100,0.00,,---,0.02,VWS V14.01,2013-09-24 15:00:00,
2013-09-24 11:05:00,77.4,77.4,29.94,SE,139,3.7,7.5,100,0.00,,---,0.02,VWS V14.01,2013-09-24 15:05:00,
2013-09-24 11:10:00,77.3,77.3,29.94,South,184,5.8,11.6,100,0.00,,---,0.02,VWS V14.01,2013-09-24 15:10:00,
2013-09-24 11:15:00,77.0,77.0,29.94,South,191,0.4,4.7,100,0.00,,---,0.02,VWS V14.01,2013-09-24 15:15:00,
2013-09-24 11:20:00,77.8,77.8,29.94,SSW,207,4.4,6.0,100,0.00,,---,0.02,VWS V14.01,2013-09-24 15:20:00,
2013-09-24 11:25:00,77.7,77.7,29.94,SSE,155,4.0,9.3,100,0.00,,---,0.02,VWS V14.01,2013-09-24 15:25:00,
2013-09-24 11:30:00,78.0,78.0,29.94,South,190,9.4,9.6,100,0.00,,---,0.02,VWS V14.01,2013-09-24 15:30:00,
2013-09-24 11:35:00,78.2,78.2,29.94,SW,224,6.6,8.3,100,0.00,,---,0.02,VWS V14.01,2013-09-24 15:35:00,
2013-09-24 11:40:00,77.4,77.4,29.94,South,180,2.9,3.4,100,0.00,,---,0.02,VWS V14.01,2013-09-24 15:40:00,
2013-09-24 11:45:00,77.5,77.4,29.94,South,190,2.1,3.5,100,0.00,,---,0.02,VWS V14.01,2013-09-24 15:45:00,
2013-09-24 11:50:00,78.7,78.5,29.94,SSW,198,4.9,8.0,99,0.00,,---,0.02,VWS V14.01,2013-09-24 15:50:00,
2013-09-24 11:55:00,78.2,77.8,29.94,South,191,7.1,9.0,99,0.00,,---,0.02,VWS V14.01,2013-09-24 15:55:00,
2013-09-24 12:00:00,78.2,77.6,29.94,SW,236,6.6,7.0,98,0.00,,---,0.02,VWS V14.01,2013-09-24 16:00:00,
2013-09-24 12:05:00,78.7,78.1,29.93,SW,236,5.7,6.5,98,0.00,,---,0.02,VWS V14.01,2013-09-24 16:05:00,
2013-09-24 12:10:00,79.1,78.2,29.93,SW,229,4.1,7.4,97,0.00,,---,0.02,VWS V14.01,2013-09-24 16:10:00,
2013-09-24 12:15:00,79.4,78.4,29.93,WSW,242,2.1,3.2,97,0.00,,---,0.02,VWS V14.01,2013-09-24 16:15:00,
2013-09-24 12:20:00,79.2,78.0,29.93,SW,233,3.4,5.2,96,0.00,,---,0.02,VWS V14.01,2013-09-24 16:20:00,
2013-09-24 12:25:00,79.3,77.8,29.93,SW,236,7.1,7.1,95,0.00,,---,0.02,VWS V14.01,2013-09-24 16:25:00,
2013-09-24 12:30:00,78.7,77.3,29.93,South,173,2.4,3.4,96,0.00,,---,0.02,VWS V14.01,2013-09-24 16:30:00,
2013-09-24 12:35:00,79.0,77.5,29.93,South,191,6.2,10.9,95,0.00,,---,0.02,VWS V14.01,2013-09-24 16:35:00,
2013-09-24 12:40:00,80.3,78.7,29.93,South,184,7.5,9.5,95,0.00,,---,0.02,VWS V14.01,2013-09-24 16:40:00,
2013-09-24 12:45:00,79.5,77.6,29.93,South,186,4.3,8.0,94,0.00,,---,0.02,VWS V14.01,2013-09-24 16:45:00,
2013-09-24 12:50:00,80.5,78.4,29.92,South,190,7.1,7.3,93,0.00,,---,0.02,VWS V14.01,2013-09-24 16:50:00,
2013-09-24 12:55:00,81.4,78.9,29.93,WSW,239,2.7,6.3,92,0.00,,---,0.02,VWS V14.01,2013-09-24 16:55:00,
2013-09-24 13:00:00,81.5,77.7,29.93,SW,228,8.3,9.4,88,0.00,,---,0.02,VWS V14.01,2013-09-24 17:00:00,
2013-09-24 13:05:00,81.3,77.2,29.93,SW,222,4.6,7.6,88,0.00,,---,0.02,VWS V14.01,2013-09-24 17:05:00,
2013-09-24 13:10:00,81.8,78.0,29.93,SW,218,2.7,5.8,88,0.00,,---,0.02,VWS V14.01,2013-09-24 17:10:00,
2013-09-24 13:15:00,82.4,78.2,29.92,South,183,3.2,7.3,87,0.00,,---,0.02,VWS V14.01,2013-09-24 17:15:00,
2013-09-24 13:20:00,81.7,76.7,29.92,SSW,202,4.0,5.7,85,0.00,,---,0.02,VWS V14.01,2013-09-24 17:20:00,
2013-09-24 13:25:00,82.3,76.9,29.91,South,170,5.9,10.3,84,0.00,,---,0.02,VWS V14.01,2013-09-24 17:25:00,
2013-09-24 13:30:00,81.7,76.2,29.91,South,179,4.2,5.2,84,0.00,,---,0.02,VWS V14.01,2013-09-24 17:30:00,
2013-09-24 13:35:00,82.0,76.8,29.91,South,183,5.1,7.0,84,0.00,,---,0.02,VWS V14.01,2013-09-24 17:35:00,
2013-09-24 13:40:00,81.3,75.9,29.91,SW,233,1.7,6.1,84,0.00,,---,0.02,VWS V14.01,2013-09-24 17:40:00,
2013-09-24 13:45:00,82.8,76.9,29.90,West,270,4.2,5.3,82,0.00,,---,0.02,VWS V14.01,2013-09-24 17:45:00,
2013-09-24 13:50:00,83.4,76.5,29.90,SSW,195,6.9,7.0,80,0.00,,---,0.02,VWS V14.01,2013-09-24 17:50:00,
2013-09-24 13:55:00,84.0,75.9,29.89,WSW,238,8.7,9.2,77,0.00,,---,0.02,VWS V14.01,2013-09-24 17:55:00,
2013-09-24 14:00:00,84.3,76.3,29.89,South,188,5.2,8.6,77,0.00,,---,0.02,VWS V14.01,2013-09-24 18:00:00,
2013-09-24 14:05:00,84.6,75.3,29.89,SSW,210,7.4,9.8,74,0.00,,---,0.02,VWS V14.01,2013-09-24 18:05:00,
2013-09-24 14:10:00,83.4,74.3,29.88,SW,228,2.9,8.0,74,0.00,,---,0.02,VWS V14.01,2013-09-24 18:10:00,
2013-09-24 14:15:00,84.4,75.0,29.88,SW,225,6.2,7.3,74,0.00,,---,0.02,VWS V14.01,2013-09-24 18:15:00,
2013-09-24 14:20:00,84.2,74.3,29.88,SW,224,6.1,8.7,72,0.00,,---,0.02,VWS V14.01,2013-09-24 18:20:00,
2013-09-24 14:25:00,83.4,73.2,29.88,SSE,156,3.7,10.6,72,0.00,,---,0.02,VWS V14.01,2013-09-24 18:25:00,
2013-09-24 14:30:00,84.3,74.0,29.88,SW,214,4.7,9.3,71,0.00,,---,0.02,VWS V14.01,2013-09-24 18:30:00,
2013-09-24 14:35:00,84.3,74.0,29.88,SW,228,10.2,11.4,71,0.00,,---,0.02,VWS V14.01,2013-09-24 18:35:00,
2013-09-24 14:40:00,83.3,73.1,29.87,SSE,160,7.6,8.6,72,0.00,,---,0.02,VWS V14.01,2013-09-24 18:40:00,
2013-09-24 14:45:00,83.2,73.2,29.87,SW,236,9.7,12.8,72,0.00,,---,0.02,VWS V14.01,2013-09-24 18:45:00,
2013-09-24 14:50:00,83.7,74.1,29.87,SSW,200,5.3,9.9,73,0.00,,---,0.02,VWS V14.01,2013-09-24 18:50:00,
2013-09-24 14:55:00,84.2,74.6,29.87,SW,226,4.2,5.8,73,0.00,,---,0.02,VWS V14.01,2013-09-24 18:55:00,
2013-09-24 15:00:00,84.1,74.6,29.87,South,173,9.8,11.1,73,0.00,,---,0.02,VWS V14.01,2013-09-24 19:00:00,
2013-09-24 15:05:00,83.1,73.4,29.87,SW,215,9.3,11.4,73,0.00,,---,0.02,VWS V14.01,2013-09-24 19:05:00,
2013-09-24 15:10:00,83.9,74.2,29.87,South,174,8.3,9.7,73,0.00,,---,0.02,VWS V14.01,2013-09-24 19:10:00,
2013-09-24 15:15:00,81.8,72.1,29.87,WSW,242,6.2,8.7,72,0.00,,---,0.02,VWS V14.01,2013-09-24 19:15:00,
2013-09-24 15:20:00,82.4,75.9,29.87,SW,219,0.9,2.7,81,0.00,,---,0.02,VWS V14.01,2013-09-24 19:20:00,
2013-09-24 15:25:00,80.7,75.8,29.87,WSW,243,1.7,4.2,85,0.03,,---,0.05,VWS V14.01,2013-09-24 19:25:00,
2013-09-24 15:30:00,80.5,77.4,29.87,WSW,240,3.6,4.2,90,0.09,,---,0.11,VWS V14.01,2013-09-24 19:30:00,
2013-09-24 15:35:00,79.3,76.9,29.87,SSW,198,3.4,4.5,92,0.11,,---,0.13,VWS V14.01,2013-09-24 19:35:00,
2013-09-24 15:40:00,78.4,76.7,29.87,SSE,156,2.4,4.4,95,0.19,,---,0.21,VWS V14.01,2013-09-24 19:40:00,
2013-09-24 15:45:00,79.1,77.9,29.86,South,170,3.3,3.3,96,0.22,,---,0.24,VWS V14.01,2013-09-24 19:45:00,
2013-09-24 15:50:00,78.3,77.6,29.87,South,187,3.4,5.5,98,0.22,,---,0.24,VWS V14.01,2013-09-24 19:50:00,
2013-09-24 15:55:00,78.5,77.7,29.87,South,183,4.2,5.3,98,0.23,,---,0.25,VWS V14.01,2013-09-24 19:55:00,
2013-09-24 16:00:00,77.3,76.7,29.86,SSE,155,2.6,3.0,98,0.23,,---,0.25,VWS V14.01,2013-09-24 20:00:00,
2013-09-24 16:05:00,78.2,77.9,29.86,SE,129,3.1,4.0,99,0.23,,---,0.25,VWS V14.01,2013-09-24 20:05:00,
2013-09-24 16:10:00,77.5,77.3,29.86,SSE,156,1.7,2.5,100,0.23,,---,0.25,VWS V14.01,2013-09-24 20:10:00,
2013-09-24 16:15:00,77.1,76.9,29.86,SSE,150,1.2,4.2,99,0.23,,---,0.25,VWS V14.01,2013-09-24 20:15:00,
2013-09-24 16:20:00,77.8,77.7,29.86,SSE,155,3.2,4.9,100,0.23,,---,0.25,VWS V14.01,2013-09-24 20:20:00,
2013-09-24 16:25:00,78.5,78.5,29.86,SE,136,5.0,6.2,100,0.21,,---,0.25,VWS V14.01,2013-09-24 20:25:00,
2013-09-24 16:30:00,78.7,78.7,29.86,South,186,3.9,3.9,100,0.16,,---,0.25,VWS V14.01,2013-09-24 20:30:00,
2013-09-24 16:35:00,78.9,78.9,29.87,SW,226,1.7,2.4,100,0.12,,---,0.25,VWS V14.01,2013-09-24 20:35:00,
2013-09-24 16:40:00,78.4,78.4,29.87,SW,228,3.4,4.8,100,0.08,,---,0.25,VWS V14.01,2013-09-24 20:40:00,
2013-09-24 16:45:00,78.9,78.9,29.87,WSW,245,1.8,2.2,100,0.11,,---,0.35,VWS V14.01,2013-09-24 20:45:00,
2013-09-24 16:50:00,77.8,77.8,29.86,SW,232,4.2,4.3,100,0.11,,---,0.35,VWS V14.01,2013-09-24 20:50:00,
2013-09-24 16:55:00,78.1,78.1,29.86,South,188,0.0,0.0,100,0.10,,---,0.35,VWS V14.01,2013-09-24 20:55:00,
2013-09-24 17:00:00,78.4,78.4,29.85,South,170,2.6,2.8,100,0.10,,---,0.35,VWS V14.01,2013-09-24 21:00:00,
2013-09-24 17:05:00,79.1,79.1,29.85,South,172,1.3,1.3,100,0.10,,---,0.35,VWS V14.01,2013-09-24 21:05:00,
2013-09-24 17:10:00,79.2,79.2,29.85,SE,134,0.0,0.0,100,0.10,,---,0.35,VWS V14.01,2013-09-24 21:10:00,
2013-09-24 17:15:00,79.5,79.5,29.85,East,82,0.0,0.0,100,0.10,,---,0.35,VWS V14.01,2013-09-24 21:15:00,
2013-09-24 17:20:00,80.0,80.0,29.85,South,174,1.0,1.0,100,0.10,,---,0.35,VWS V14.01,2013-09-24 21:20:00,
2013-09-24 17:25:00,78.3,78.3,29.85,ENE,65,0.0,1.4,100,0.10,,---,0.35,VWS V14.01,2013-09-24 21:25:00,
2013-09-24 17:30:00,79.1,79.1,29.85,ENE,65,0.0,0.0,100,0.10,,---,0.35,VWS V14.01,2013-09-24 21:30:00,
2013-09-24 17:35:00,79.2,79.2,29.85,ENE,72,0.0,0.7,100,0.10,,---,0.35,VWS V14.01,2013-09-24 21:35:00,
2013-09-24 17:40:00,79.0,79.0,29.85,ENE,70,0.0,0.0,100,0.10,,---,0.35,VWS V14.01,2013-09-24 21:40:00,
2013-09-24 17:45:00,78.9,78.9,29.85,East,98,3.0,3.0,100,0.02,,---,0.35,VWS V14.01,2013-09-24 21:45:00,
2013-09-24 17:50:00,79.0,79.0,29.85,SSW,198,4.1,6.5,100,0.00,,---,0.35,VWS V14.01,2013-09-24 21:50:00,
2013-09-24 17:55:00,79.0,79.0,29.84,SSE,166,4.3,6.5,100,0.00,,---,0.35,VWS V14.01,2013-09-24 21:55:00,
2013-09-24 18:00:00,78.3,78.3,29.84,SSW,194,6.2,6.3,100,0.00,,---,0.35,VWS V14.01,2013-09-24 22:00:00,
2013-09-24 18:05:00,78.3,78.1,29.84,SSW,195,7.0,7.3,99,0.00,,---,0.35,VWS V14.01,2013-09-24 22:05:00,
2013-09-24 18:10:00,78.4,78.0,29.84,SSW,208,6.1,6.2,99,0.00,,---,0.35,VWS V14.01,2013-09-24 22:10:00,
2013-09-24 18:15:00,79.1,78.2,29.85,SW,233,3.1,5.8,97,0.00,,---,0.35,VWS V14.01,2013-09-24 22:15:00,
2013-09-24 18:20:00,79.5,78.3,29.85,WSW,243,2.8,5.2,96,0.00,,---,0.35,VWS V14.01,2013-09-24 22:20:00,
2013-09-24 18:25:00,78.8,77.3,29.86,SSE,166,4.7,5.5,95,0.00,,---,0.35,VWS V14.01,2013-09-24 22:25:00,
2013-09-24 18:30:00,79.3,77.7,29.86,SW,221,4.3,5.6,95,0.00,,---,0.35,VWS V14.01,2013-09-24 22:30:00,
2013-09-24 18:35:00,79.3,77.7,29.86,WSW,239,3.7,4.2,95,0.00,,---,0.35,VWS V14.01,2013-09-24 22:35:00,
2013-09-24 18:40:00,79.9,78.1,29.86,SW,221,1.8,4.8,94,0.00,,---,0.35,VWS V14.01,2013-09-24 22:40:00,
2013-09-24 18:45:00,79.1,77.1,29.86,SW,228,3.4,4.2,94,0.00,,---,0.35,VWS V14.01,2013-09-24 22:45:00,
2013-09-24 18:50:00,78.8,76.3,29.87,WSW,256,2.5,4.2,92,0.00,,---,0.35,VWS V14.01,2013-09-24 22:50:00,
2013-09-24 18:55:00,79.2,76.7,29.87,WSW,239,3.2,4.8,92,0.00,,---,0.35,VWS V14.01,2013-09-24 22:55:00,
2013-09-24 19:00:00,79.8,77.6,29.87,WSW,248,2.3,3.5,93,0.00,,---,0.35,VWS V14.01,2013-09-24 23:00:00,
2013-09-24 19:05:00,79.3,76.6,29.87,WSW,256,3.2,6.2,92,0.00,,---,0.35,VWS V14.01,2013-09-24 23:05:00,
2013-09-24 19:10:00,79.2,76.5,29.87,WSW,240,2.5,4.8,92,0.00,,---,0.35,VWS V14.01,2013-09-24 23:10:00,
2013-09-24 19:15:00,79.0,76.4,29.88,SW,233,2.1,2.2,92,0.00,,---,0.35,VWS V14.01,2013-09-24 23:15:00,
2013-09-24 19:20:00,79.0,76.3,29.88,WNW,287,5.6,6.1,91,0.00,,---,0.35,VWS V14.01,2013-09-24 23:20:00,
2013-09-24 19:25:00,78.5,75.8,29.89,WNW,283,6.7,7.3,91,0.00,,---,0.35,VWS V14.01,2013-09-24 23:25:00,
2013-09-24 19:30:00,78.1,76.0,29.89,NNW,336,4.0,4.0,93,0.00,,---,0.35,VWS V14.01,2013-09-24 23:30:00,
2013-09-24 19:35:00,77.5,76.1,29.90,NW,308,7.7,8.1,96,0.00,,---,0.35,VWS V14.01,2013-09-24 23:35:00,
2013-09-24 19:40:00,76.3,75.2,29.89,NNW,340,3.9,3.9,96,0.00,,---,0.35,VWS V14.01,2013-09-24 23:40:00,
2013-09-24 19:45:00,75.1,74.2,29.89,North,1,1.7,1.7,97,0.00,,---,0.35,VWS V14.01,2013-09-24 23:45:00,
2013-09-24 19:50:00,74.6,74.1,29.89,North,3,0.0,3.5,98,0.00,,---,0.35,VWS V14.01,2013-09-24 23:50:00,
2013-09-24 19:55:00,74.3,74.0,29.88,North,0,0.0,0.0,99,0.00,,---,0.35,VWS V14.01,2013-09-24 23:55:00,
2013-09-24 20:00:00,73.9,73.7,29.88,North,0,0.0,2.2,99,0.00,,---,0.35,VWS V14.01,2013-09-25 00:00:00,
2013-09-24 20:05:00,72.8,72.7,29.89,North,0,0.0,0.0,100,0.00,,---,0.35,VWS V14.01,2013-09-25 00:05:00,
2013-09-24 20:10:00,74.0,74.0,29.89,North,3,0.0,0.0,100,0.00,,---,0.35,VWS V14.01,2013-09-25 00:10:00,
2013-09-24 20:15:00,72.7,72.7,29.89,North,3,0.0,0.0,100,0.00,,---,0.35,VWS V14.01,2013-09-25 00:15:00,
2013-09-24 20:20:00,73.7,73.7,29.89,North,3,0.0,0.0,100,0.00,,---,0.35,VWS V14.01,2013-09-25 00:20:00,
2013-09-24 20:25:00,73.8,73.8,29.89,North,3,0.0,0.0,100,0.00,,---,0.35,VWS V14.01,2013-09-25 00:25:00,
2013-09-24 20:30:00,73.9,73.9,29.89,North,359,1.1,1.1,100,0.00,,---,0.35,VWS V14.01,2013-09-25 00:30:00,
2013-09-24 20:35:00,74.1,74.1,29.89,North,353,0.0,1.1,100,0.00,,---,0.35,VWS V14.01,2013-09-25 00:35:00,
2013-09-24 20:40:00,74.0,74.0,29.88,NW,305,0.0,2.9,100,0.00,,---,0.35,VWS V14.01,2013-09-25 00:40:00,
2013-09-24 20:45:00,73.6,73.6,29.86,South,181,2.1,4.7,100,0.00,,---,0.35,VWS V14.01,2013-09-25 00:45:00,
2013-09-24 20:50:00,73.5,73.5,29.86,South,173,4.3,5.9,100,0.00,,---,0.35,VWS V14.01,2013-09-25 00:50:00,
2013-09-24 20:55:00,74.1,74.1,29.86,SSE,160,0.0,1.1,100,0.00,,---,0.35,VWS V14.01,2013-09-25 00:55:00,
2013-09-24 21:00:00,73.8,73.8,29.86,SSE,160,0.0,0.0,100,0.00,,---,0.35,VWS V14.01,2013-09-25 01:00:00,
2013-09-24 21:05:00,73.3,73.3,29.86,SSE,160,0.0,0.0,100,0.00,,---,0.35,VWS V14.01,2013-09-25 01:05:00,
2013-09-24 21:10:00,73.2,73.2,29.87,SSE,160,0.0,0.0,100,0.00,,---,0.35,VWS V14.01,2013-09-25 01:10:00,
2013-09-24 21:15:00,73.6,73.6,29.87,SSE,160,0.0,0.0,100,0.00,,---,0.35,VWS V14.01,2013-09-25 01:15:00,
2013-09-24 21:20:00,74.0,74.0,29.87,SSE,160,0.0,0.0,100,0.00,,---,0.35,VWS V14.01,2013-09-25 01:20:00,
2013-09-24 21:25:00,72.8,72.8,29.87,SSE,160,0.0,0.0,100,0.00,,---,0.35,VWS V14.01,2013-09-25 01:25:00,
2013-09-24 21:30:00,73.9,73.9,29.87,SSE,160,0.0,0.0,100,0.00,,---,0.35,VWS V14.01,2013-09-25 01:30:00,
2013-09-24 21:35:00,73.9,73.9,29.87,South,183,2.9,2.9,100,0.00,,---,0.35,VWS V14.01,2013-09-25 01:35:00,
2013-09-24 21:40:00,72.6,72.6,29.87,WSW,240,2.7,2.7,100,0.00,,---,0.35,VWS V14.01,2013-09-25 01:40:00,
2013-09-24 21:45:00,73.9,73.9,29.87,SW,231,0.0,0.0,100,0.00,,---,0.35,VWS V14.01,2013-09-25 01:45:00,
2013-09-24 21:50:00,74.0,74.0,29.87,SSW,205,0.0,0.0,100,0.00,,---,0.35,VWS V14.01,2013-09-25 01:50:00,
2013-09-24 21:55:00,73.8,73.8,29.87,SSW,197,0.0,0.0,100,0.00,,---,0.35,VWS V14.01,2013-09-25 01:55:00,
2013-09-24 22:00:00,73.5,73.5,29.87,SSW,197,0.0,0.0,100,0.00,,---,0.35,VWS V14.01,2013-09-25 02:00:00,
2013-09-24 22:05:00,72.8,72.8,29.87,SSW,197,0.0,0.0,100,0.00,,---,0.35,VWS V14.01,2013-09-25 02:05:00,
2013-09-24 22:10:00,73.9,73.9,29.86,SSW,197,0.0,0.0,100,0.00,,---,0.35,VWS V14.01,2013-09-25 02:10:00,
2013-09-24 22:15:00,74.2,74.2,29.86,SSW,193,0.0,0.0,100,0.00,,---,0.35,VWS V14.01,2013-09-25 02:15:00,
2013-09-24 22:20:00,74.0,74.0,29.86,SSW,204,0.0,0.0,100,0.00,,---,0.35,VWS V14.01,2013-09-25 02:20:00,
2013-09-24 22:25:00,74.0,74.0,29.86,SW,228,2.5,3.0,100,0.00,,---,0.35,VWS V14.01,2013-09-25 02:25:00,
2013-09-24 22:30:00,74.0,74.0,29.86,SSW,194,0.4,4.1,100,0.00,,---,0.35,VWS V14.01,2013-09-25 02:30:00,
2013-09-24 22:35:00,74.5,74.5,29.86,SW,224,4.2,4.8,100,0.00,,---,0.35,VWS V14.01,2013-09-25 02:35:00,
2013-09-24 22:40:00,74.5,74.5,29.86,WSW,256,1.4,1.9,100,0.00,,---,0.35,VWS V14.01,2013-09-25 02:40:00,
2013-09-24 22:45:00,74.8,74.8,29.85,SSE,167,1.2,4.0,100,0.00,,---,0.35,VWS V14.01,2013-09-25 02:45:00,
2013-09-24 22:50:00,73.7,73.7,29.85,SSE,159,0.0,1.5,100,0.00,,---,0.35,VWS V14.01,2013-09-25 02:50:00,
2013-09-24 22:55:00,75.1,75.1,29.85,SSW,207,2.9,3.6,100,0.00,,---,0.35,VWS V14.01,2013-09-25 02:55:00,
2013-09-24 23:00:00,75.2,75.2,29.85,SSW,200,0.0,5.7,100,0.00,,---,0.35,VWS V14.01,2013-09-25 03:00:00,
2013-09-24 23:05:00,75.4,75.4,29.86,SW,217,3.9,5.3,100,0.00,,---,0.35,VWS V14.01,2013-09-25 03:05:00,
2013-09-24 23:10:00,75.3,75.3,29.86,SSW,197,0.0,5.7,100,0.00,,---,0.35,VWS V14.01,2013-09-25 03:10:00,
2013-09-24 23:15:00,74.7,74.7,29.86,SW,229,0.0,4.3,100,0.00,,---,0.35,VWS V14.01,2013-09-25 03:15:00,
2013-09-24 23:20:00,75.6,75.6,29.85,SSW,205,7.5,7.5,100,0.00,,---,0.35,VWS V14.01,2013-09-25 03:20:00,
2013-09-24 23:25:00,75.9,75.9,29.85,SW,228,7.4,7.4,100,0.00,,---,0.35,VWS V14.01,2013-09-25 03:25:00,
2013-09-24 23:30:00,75.3,75.3,29.85,SSW,207,2.4,5.6,100,0.00,,---,0.35,VWS V14.01,2013-09-25 03:30:00,
2013-09-24 23:35:00,74.8,74.8,29.85,SW,218,2.5,4.0,100,0.00,,---,0.35,VWS V14.01,2013-09-25 03:35:00,
2013-09-24 23:40:00,75.9,75.9,29.84,WSW,250,1.9,6.1,100,0.00,,---,0.35,VWS V14.01,2013-09-25 03:40:00,
2013-09-24 23:45:00,76.1,76.1,29.85,SW,214,5.2,9.3,100,0.00,,---,0.35,VWS V14.01,2013-09-25 03:45:00,
2013-09-24 23:50:00,75.9,75.9,29.85,SSW,197,0.0,6.3,100,0.00,,---,0.35,VWS V14.01,2013-09-25 03:50:00,
2013-09-24 23:59:00,75.8,75.8,29.85,SSW,193,1.2,9.4,100,0.00,,---,0.00,VWS V14.01,2013-09-25 03:59:00,